Time;durP1;ratioP1;P1;durP2;ratioP2;P2;SDS_P1;SDS_P2;PMS_P1;PMS_P2;Temp;Humidity;BMP_temperature;BMP_pressure;BME280_temperature;BME280_humidity;BME280_pressure;Samples;Min_cycle;Max_cycle;Signal;HPM_P1;HPM_P2
2023/06/13 00:02:10;;;;;;;4.68;3.28;;;15.60;99.90;;;;;;5050831;28;20049;-77
2023/06/13 00:04:36;;;;;;;2.95;2.65;;;15.60;99.90;;;;;;5054446;28;20037;-77
2023/06/13 00:07:07;;;;;;;4.78;2.95;;;15.60;99.90;;;;;;5050059;28;20042;-77
2023/06/13 00:09:33;;;;;;;4.97;2.70;;;15.50;99.90;;;;;;5049444;28;20087;-75
2023/06/13 00:11:58;;;;;;;2.92;2.63;;;15.50;99.90;;;;;;5053026;28;20033;-76
2023/06/13 00:14:24;;;;;;;5.82;2.88;;;15.50;99.90;;;;;;5055754;28;20044;-76
2023/06/13 00:16:50;;;;;;;3.70;2.80;;;15.50;99.90;;;;;;5052854;28;20027;-75
2023/06/13 00:19:16;;;;;;;3.17;2.88;;;15.40;99.90;;;;;;5052111;28;20017;-76
2023/06/13 00:21:45;;;;;;;3.53;2.95;;;15.40;99.90;;;;;;5051796;28;20036;-76
2023/06/13 00:24:11;;;;;;;4.35;3.25;;;15.40;99.90;;;;;;5052697;28;20049;-76
2023/06/13 00:26:37;;;;;;;4.22;3.25;;;15.40;99.90;;;;;;5052909;28;20101;-76
2023/06/13 00:29:03;;;;;;;4.65;3.30;;;15.40;99.90;;;;;;5053365;28;20090;-76
2023/06/13 00:31:29;;;;;;;4.00;3.10;;;15.30;99.90;;;;;;5050050;28;20387;-76
2023/06/13 00:33:58;;;;;;;5.10;2.85;;;15.30;99.90;;;;;;5038247;28;20041;-76
2023/06/13 00:36:27;;;;;;;6.53;2.67;;;15.30;99.90;;;;;;5043167;28;20077;-76
2023/06/13 00:38:56;;;;;;;3.55;3.17;;;15.20;99.90;;;;;;5051758;28;20465;-76
2023/06/13 00:41:22;;;;;;;4.50;3.08;;;15.10;99.90;;;;;;5048559;28;20037;-77
2023/06/13 00:43:48;;;;;;;3.97;3.08;;;15.10;99.90;;;;;;5050501;28;20090;-76
2023/06/13 00:46:24;;;;;;;5.30;2.90;;;15.00;99.90;;;;;;5045764;28;20044;-76
2023/06/13 00:48:49;;;;;;;4.28;2.85;;;14.90;99.90;;;;;;5047264;28;20092;-76
2023/06/13 00:51:16;;;;;;;4.28;3.03;;;14.80;99.90;;;;;;5050007;28;20029;-76
2023/06/13 00:53:46;;;;;;;3.95;2.90;;;14.70;99.90;;;;;;5045560;28;20057;-76
2023/06/13 00:56:11;;;;;;;5.45;3.10;;;14.70;99.90;;;;;;5054113;28;20051;-76
2023/06/13 00:58:37;;;;;;;4.20;2.78;;;14.60;99.90;;;;;;5056141;28;20029;-76
2023/06/13 01:01:04;;;;;;;5.80;2.75;;;14.60;99.90;;;;;;5021945;28;20045;-76
2023/06/13 01:03:33;;;;;;;4.15;2.80;;;14.50;99.90;;;;;;5048429;28;20037;-76
2023/06/13 01:05:59;;;;;;;4.45;3.10;;;14.40;99.90;;;;;;5052512;28;20025;-76
2023/06/13 01:08:27;;;;;;;5.55;3.00;;;14.40;99.90;;;;;;5055798;28;20021;-76
2023/06/13 01:11:25;;;;;;;4.60;3.20;;;14.50;99.90;;;;;;5055855;28;20036;-76
2023/06/13 01:14:03;;;;;;;4.32;2.80;;;14.30;99.90;;;;;;5056261;28;20043;-76
2023/06/13 01:16:39;;;;;;;4.55;3.17;;;14.40;99.90;;;;;;5055567;28;20029;-77
2023/06/13 01:19:11;;;;;;;6.95;3.22;;;14.40;99.90;;;;;;5040162;28;20409;-75
2023/06/13 01:21:39;;;;;;;4.80;2.80;;;14.50;99.90;;;;;;5054717;28;20033;-76
2023/06/13 01:24:12;;;;;;;3.63;3.28;;;14.40;99.90;;;;;;5051591;28;20036;-76
2023/06/13 01:26:51;;;;;;;7.43;3.20;;;14.10;99.90;;;;;;5056296;28;20504;-76
2023/06/13 01:29:17;;;;;;;3.97;3.35;;;14.00;99.90;;;;;;5045842;28;20485;-76
2023/06/13 01:31:50;;;;;;;3.47;2.90;;;13.80;99.90;;;;;;5045125;28;20509;-77
2023/06/13 01:34:17;;;;;;;4.35;3.20;;;13.70;99.90;;;;;;5047650;28;20106;-77
2023/06/13 01:36:45;;;;;;;5.75;3.35;;;13.70;99.90;;;;;;5043625;28;20563;-76
2023/06/13 01:39:11;;;;;;;8.10;3.45;;;13.70;99.90;;;;;;5043621;28;20039;-76
2023/06/13 01:41:37;;;;;;;5.82;3.63;;;13.80;99.90;;;;;;5049329;28;20112;-76
2023/06/13 01:44:05;;;;;;;3.42;2.75;;;13.80;99.90;;;;;;5048153;28;20105;-77
2023/06/13 01:46:33;;;;;;;;;;;13.70;99.90;;;;;;5053921;28;20071;-77
2023/06/13 01:49:02;;;;;;;;;;;13.80;99.90;;;;;;5049545;28;19913;-77
2023/06/13 01:51:36;;;;;;;3.00;2.70;;;13.80;99.90;;;;;;5055713;28;19950;-77
2023/06/13 01:54:06;;;;;;;4.50;2.83;;;13.70;99.90;;;;;;5031660;28;20049;-76
2023/06/13 01:56:33;;;;;;;3.53;3.13;;;13.70;99.90;;;;;;5015396;28;20386;-77
2023/06/13 01:59:07;;;;;;;5.63;3.30;;;13.60;99.90;;;;;;5044019;28;20055;-76
2023/06/13 02:01:38;;;;;;;3.67;3.38;;;13.60;99.90;;;;;;5046218;28;20038;-77
2023/06/13 02:04:04;;;;;;;3.85;3.35;;;13.50;99.90;;;;;;5038841;28;20044;-76
2023/06/13 02:06:30;;;;;;;5.65;3.30;;;13.60;99.90;;;;;;5048319;28;20718;-75
2023/06/13 02:08:56;;;;;;;5.38;3.50;;;13.60;99.90;;;;;;5049722;28;20025;-76
2023/06/13 02:11:22;;;;;;;3.38;3.08;;;13.60;99.90;;;;;;5045602;28;20731;-75
2023/06/13 02:13:48;;;;;;;3.90;3.40;;;13.50;99.90;;;;;;5047008;28;20086;-76
2023/06/13 02:16:14;;;;;;;3.35;2.85;;;13.50;99.90;;;;;;5043932;28;20025;-75
2023/06/13 02:18:40;;;;;;;4.50;2.92;;;13.50;99.90;;;;;;5047019;28;20029;-76
2023/06/13 02:21:07;;;;;;;4.50;3.15;;;13.50;99.90;;;;;;5048044;28;20043;-76
2023/06/13 02:23:32;;;;;;;3.30;3.00;;;13.40;99.90;;;;;;5045385;28;20037;-76
2023/06/13 02:25:58;;;;;;;5.75;3.72;;;13.30;99.90;;;;;;5053888;28;20159;-76
2023/06/13 02:28:23;;;;;;;3.38;2.90;;;13.40;99.90;;;;;;5048556;28;20310;-76
2023/06/13 02:30:49;;;;;;;3.92;3.05;;;13.40;99.90;;;;;;5043582;28;20029;-76
2023/06/13 02:33:15;;;;;;;3.63;2.90;;;13.40;99.90;;;;;;5043353;28;20057;-76
2023/06/13 02:35:42;;;;;;;3.47;3.15;;;13.30;99.90;;;;;;5047942;28;20543;-76
2023/06/13 02:38:08;;;;;;;5.68;3.13;;;13.20;99.90;;;;;;5048365;28;20036;-76
2023/06/13 02:40:37;;;;;;;6.00;3.03;;;13.30;99.90;;;;;;5042594;28;20136;-76
2023/06/13 02:43:02;;;;;;;4.15;2.85;;;13.20;99.90;;;;;;5048845;28;20168;-76
2023/06/13 02:45:28;;;;;;;3.53;2.80;;;13.30;99.90;;;;;;5047983;28;20048;-76
2023/06/13 02:47:54;;;;;;;4.90;2.90;;;13.30;99.90;;;;;;5047708;28;20056;-76
2023/06/13 02:50:21;;;;;;;3.90;2.90;;;13.20;99.90;;;;;;5047171;28;20056;-76
2023/06/13 02:52:50;;;;;;;3.45;3.03;;;13.20;99.90;;;;;;5048747;28;20095;-78
2023/06/13 02:55:17;;;;;;;3.80;3.03;;;13.20;99.90;;;;;;5049748;28;20036;-79
2023/06/13 02:57:44;;;;;;;6.10;3.13;;;13.20;99.90;;;;;;5047887;28;20033;-77
2023/06/13 03:00:12;;;;;;;4.38;2.78;;;13.10;99.90;;;;;;5047272;28;20037;-75
2023/06/13 03:02:38;;;;;;;4.78;3.25;;;13.00;99.90;;;;;;5043851;28;20041;-76
2023/06/13 03:05:09;;;;;;;6.30;3.50;;;12.90;99.90;;;;;;5039393;28;20087;-76
2023/06/13 03:07:35;;;;;;;6.25;3.30;;;12.90;99.90;;;;;;5044555;28;20041;-75
2023/06/13 03:10:06;;;;;;;3.20;2.90;;;12.80;99.90;;;;;;5045030;28;20041;-75
2023/06/13 03:12:31;;;;;;;5.38;3.20;;;12.80;99.90;;;;;;5048305;28;20033;-75
2023/06/13 03:14:57;;;;;;;5.60;3.03;;;12.60;99.90;;;;;;5043947;28;20508;-76
2023/06/13 03:17:23;;;;;;;6.25;2.97;;;12.70;99.90;;;;;;5048345;28;20421;-75
2023/06/13 03:19:50;;;;;;;5.13;3.65;;;12.50;99.90;;;;;;5033449;28;20056;-75
2023/06/13 03:22:16;;;;;;;3.42;3.00;;;12.60;99.90;;;;;;5046839;28;20513;-76
2023/06/13 03:24:42;;;;;;;4.82;3.05;;;12.50;99.90;;;;;;5046432;28;20481;-76
2023/06/13 03:27:09;;;;;;;3.42;2.97;;;12.50;99.90;;;;;;5043433;28;20115;-75
2023/06/13 03:29:35;;;;;;;5.68;3.00;;;12.60;99.90;;;;;;5046624;28;20156;-76
2023/06/13 03:32:01;;;;;;;5.60;3.10;;;12.70;99.90;;;;;;5043816;28;20565;-75
2023/06/13 03:34:28;;;;;;;4.18;3.30;;;12.60;99.90;;;;;;5024720;28;20030;-75
2023/06/13 03:36:54;;;;;;;2.97;2.63;;;12.50;99.90;;;;;;5045735;28;20492;-76
2023/06/13 03:39:20;;;;;;;4.03;3.03;;;12.60;99.90;;;;;;5047331;28;20033;-75
2023/06/13 03:41:45;;;;;;;3.53;2.70;;;12.60;99.90;;;;;;5045850;28;20318;-75
2023/06/13 03:44:11;;;;;;;3.58;3.10;;;12.60;99.90;;;;;;5045798;28;20050;-75
2023/06/13 03:46:37;;;;;;;4.18;2.95;;;12.70;99.90;;;;;;5047561;28;20032;-76
2023/06/13 03:49:03;;;;;;;5.32;3.05;;;12.70;99.90;;;;;;5044989;28;20377;-75
2023/06/13 03:51:29;;;;;;;3.80;2.88;;;12.80;99.90;;;;;;5044899;28;20037;-75
2023/06/13 03:53:55;;;;;;;3.15;2.75;;;12.90;99.90;;;;;;5046257;28;20152;-76
2023/06/13 03:56:21;;;;;;;4.00;2.70;;;12.90;99.90;;;;;;5048181;28;20499;-76
2023/06/13 03:58:46;;;;;;;4.93;3.72;;;12.90;99.90;;;;;;5047461;28;20036;-76
2023/06/13 04:01:12;;;;;;;3.80;3.03;;;12.90;99.90;;;;;;5032205;28;20089;-76
2023/06/13 04:03:39;;;;;;;4.47;3.00;;;13.00;99.90;;;;;;5042938;28;20040;-76
2023/06/13 04:06:08;;;;;;;5.68;3.20;;;13.10;99.90;;;;;;5027086;28;20460;-76
2023/06/13 04:08:35;;;;;;;4.45;2.63;;;13.10;99.90;;;;;;5044886;28;20086;-76
2023/06/13 04:11:01;;;;;;;4.05;3.17;;;13.10;99.90;;;;;;5048111;28;20129;-76
2023/06/13 04:13:27;;;;;;;6.57;3.22;;;13.10;99.90;;;;;;5045466;28;20101;-76
2023/06/13 04:15:53;;;;;;;3.67;3.10;;;13.10;99.90;;;;;;5045129;28;20061;-76
2023/06/13 04:18:21;;;;;;;3.08;2.78;;;13.20;99.90;;;;;;5046878;28;20091;-75
2023/06/13 04:20:47;;;;;;;4.07;2.80;;;13.20;99.90;;;;;;5046048;28;20140;-75
2023/06/13 04:23:13;;;;;;;4.25;3.13;;;13.20;99.90;;;;;;5046179;28;20459;-77
2023/06/13 04:25:40;;;;;;;3.83;3.17;;;13.20;99.90;;;;;;5015414;28;20091;-75
2023/06/13 04:28:07;;;;;;;3.42;3.10;;;13.30;99.90;;;;;;5046884;28;20036;-76
2023/06/13 04:30:33;;;;;;;3.67;2.92;;;13.30;99.90;;;;;;5029578;28;20061;-75
2023/06/13 04:32:58;;;;;;;3.72;2.72;;;13.40;99.90;;;;;;5042844;28;20071;-76
2023/06/13 04:35:24;;;;;;;5.20;2.97;;;13.40;99.90;;;;;;5041426;28;20037;-76
2023/06/13 04:37:52;;;;;;;3.47;3.17;;;13.40;99.90;;;;;;5044342;28;20125;-77
2023/06/13 04:40:18;;;;;;;3.13;2.78;;;13.40;99.90;;;;;;5045806;28;20123;-76
2023/06/13 04:42:54;;;;;;;6.22;3.28;;;13.60;99.90;;;;;;5051763;28;20538;-77
2023/06/13 04:45:24;;;;;;;3.40;3.08;;;13.60;99.90;;;;;;5046698;28;20366;-77
2023/06/13 04:47:51;;;;;;;3.05;2.65;;;13.60;99.90;;;;;;5045812;28;20024;-76
2023/06/13 04:50:19;;;;;;;6.55;3.17;;;13.60;99.90;;;;;;5051153;28;20045;-76
2023/06/13 04:52:45;;;;;;;6.20;3.10;;;13.70;99.90;;;;;;5050125;28;20069;-76
2023/06/13 04:55:11;;;;;;;6.53;2.97;;;13.70;99.90;;;;;;5051286;28;20191;-76
2023/06/13 04:57:37;;;;;;;3.50;3.08;;;13.70;99.90;;;;;;5050088;28;20105;-76
2023/06/13 05:00:09;;;;;;;7.15;2.80;;;13.70;99.90;;;;;;5048872;28;20048;-76
2023/06/13 05:02:41;;;;;;;3.38;2.50;;;13.80;99.90;;;;;;5011312;28;20149;-77
2023/06/13 05:05:16;;;;;;;4.38;3.05;;;13.80;99.90;;;;;;4988746;28;20049;-78
2023/06/13 05:07:42;;;;;;;4.07;2.90;;;13.90;99.90;;;;;;5049176;28;20115;-76
2023/06/13 05:10:08;;;;;;;4.55;3.08;;;14.00;99.90;;;;;;5046093;28;20076;-76
2023/06/13 05:12:34;;;;;;;4.72;3.08;;;14.00;99.90;;;;;;5022255;28;20552;-76
2023/06/13 05:15:00;;;;;;;4.53;2.85;;;14.10;99.90;;;;;;5054833;28;20037;-76
2023/06/13 05:17:27;;;;;;;5.72;3.22;;;14.20;99.90;;;;;;5045510;28;20029;-76
2023/06/13 05:19:56;;;;;;;2.88;2.60;;;14.20;99.90;;;;;;5035190;28;20025;-76
2023/06/13 05:22:21;;;;;;;3.92;2.83;;;14.30;99.90;;;;;;5048184;28;20549;-75
2023/06/13 05:24:48;;;;;;;4.25;2.95;;;14.40;99.90;;;;;;5050538;28;20033;-75
2023/06/13 05:27:26;;;;;;;3.53;3.22;;;14.50;99.90;;;;;;5056184;28;20033;-75
2023/06/13 05:29:51;;;;;;;3.88;2.78;;;14.60;99.90;;;;;;5060554;28;20030;-77
2023/06/13 05:32:20;;;;;;;5.07;3.38;;;14.60;99.90;;;;;;5053189;28;20041;-76
2023/06/13 05:34:49;;;;;;;3.35;2.90;;;14.70;99.90;;;;;;5051901;28;20058;-76
2023/06/13 05:37:16;;;;;;;3.08;2.80;;;14.70;99.90;;;;;;5038369;28;20030;-75
2023/06/13 05:39:42;;;;;;;3.28;2.92;;;14.70;99.90;;;;;;5037207;28;20717;-76
2023/06/13 05:42:08;;;;;;;2.78;2.50;;;14.80;99.90;;;;;;5052698;28;20142;-76
2023/06/13 05:44:34;;;;;;;4.03;2.90;;;14.90;99.90;;;;;;5049679;28;20042;-76
2023/06/13 05:47:00;;;;;;;5.20;2.50;;;14.90;99.90;;;;;;5051128;28;20033;-75
2023/06/13 05:49:27;;;;;;;4.00;2.80;;;15.00;99.90;;;;;;5052690;28;20041;-75
2023/06/13 05:51:55;;;;;;;5.97;3.00;;;15.00;99.90;;;;;;5052540;28;20026;-76
2023/06/13 05:54:21;;;;;;;;;;;15.00;99.90;;;;;;5049750;28;20052;-76
2023/06/13 05:56:46;;;;;;;4.50;2.70;;;15.10;99.90;;;;;;5054031;28;19913;-76
2023/06/13 05:59:17;;;;;;;6.05;3.00;;;15.10;99.90;;;;;;5039656;28;20041;-77
2023/06/13 06:01:46;;;;;;;6.72;3.13;;;15.20;99.90;;;;;;5054718;28;20033;-76
2023/06/13 06:04:16;;;;;;;6.10;3.08;;;15.20;99.90;;;;;;5058652;28;20029;-77
2023/06/13 06:06:45;;;;;;;4.97;2.72;;;15.30;99.90;;;;;;5043691;28;20057;-78
2023/06/13 06:09:10;;;;;;;4.60;2.63;;;15.40;99.90;;;;;;5055002;28;20416;-75
2023/06/13 06:11:36;;;;;;;8.10;2.83;;;15.50;99.90;;;;;;5054217;28;20033;-76
2023/06/13 06:14:03;;;;;;;5.03;2.67;;;15.70;99.90;;;;;;5036233;28;20043;-78
2023/06/13 06:16:29;;;;;;;6.47;3.35;;;15.60;99.90;;;;;;5036215;28;20054;-77
2023/06/13 06:18:54;;;;;;;6.38;2.95;;;15.70;99.90;;;;;;5053247;28;20037;-76
2023/06/13 06:21:20;;;;;;;8.23;3.63;;;15.80;99.90;;;;;;5057063;28;20041;-76
2023/06/13 06:23:46;;;;;;;4.88;2.63;;;15.80;99.90;;;;;;5061998;28;20033;-77
2023/06/13 06:26:12;;;;;;;4.10;2.63;;;15.80;99.90;;;;;;5061954;28;20048;-77
2023/06/13 06:28:50;;;;;;;5.10;3.10;;;15.80;99.90;;;;;;5062808;28;20043;-76
2023/06/13 06:31:16;;;;;;;3.45;2.72;;;15.80;99.90;;;;;;5039968;28;20037;-76
2023/06/13 06:33:42;;;;;;;7.40;2.55;;;15.90;99.90;;;;;;5039082;28;20032;-76
2023/06/13 06:36:22;;;;;;;3.95;3.05;;;16.00;99.90;;;;;;5045802;28;20048;-75
2023/06/13 06:38:59;;;;;;;4.00;2.97;;;16.00;99.90;;;;;;5054667;28;20032;-76
2023/06/13 06:41:25;;;;;;;3.88;2.83;;;16.10;99.90;;;;;;5055331;28;20029;-76
2023/06/13 06:43:58;;;;;;;5.32;3.08;;;16.20;99.90;;;;;;5055050;28;20045;-76
2023/06/13 06:46:25;;;;;;;5.30;3.33;;;16.30;99.90;;;;;;5045977;28;20037;-75
2023/06/13 06:49:01;;;;;;;4.55;2.63;;;16.30;99.90;;;;;;5053216;28;20035;-76
2023/06/13 06:51:39;;;;;;;4.38;2.90;;;16.30;99.90;;;;;;5033409;28;20087;-76
2023/06/13 06:57:38;;;;;;;;;;;;;;;;;;;;;
2023/06/13 07:00:05;;;;;;;3.15;2.67;;;16.50;99.90;;;;;;5041981;28;20080;-77
2023/06/13 07:02:31;;;;;;;3.55;2.53;;;16.60;99.90;;;;;;5051930;28;20052;-77
2023/06/13 07:05:07;;;;;;;4.80;2.70;;;16.60;99.90;;;;;;5064579;28;20029;-77
2023/06/13 07:07:33;;;;;;;3.58;2.72;;;16.70;99.90;;;;;;5033998;28;20055;-79
2023/06/13 07:09:58;;;;;;;3.40;2.63;;;16.80;99.90;;;;;;5057369;28;20017;-78
2023/06/13 07:12:24;;;;;;;3.72;3.00;;;16.80;99.90;;;;;;5051925;28;20114;-78
2023/06/13 07:14:50;;;;;;;4.13;2.40;;;16.80;99.90;;;;;;5050854;28;20025;-77
2023/06/13 07:17:16;;;;;;;4.10;2.50;;;16.90;99.90;;;;;;5050718;28;20029;-75
2023/06/13 07:19:41;;;;;;;3.88;2.80;;;17.00;99.90;;;;;;5051127;28;20516;-76
2023/06/13 07:22:07;;;;;;;4.25;2.70;;;17.10;99.90;;;;;;5034337;28;20060;-75
2023/06/13 07:24:33;;;;;;;3.35;2.40;;;17.10;99.90;;;;;;5042000;28;20563;-74
2023/06/13 07:26:59;;;;;;;4.03;2.83;;;17.20;99.90;;;;;;5046539;28;20041;-75
2023/06/13 07:29:24;;;;;;;3.17;2.88;;;17.30;99.90;;;;;;5049705;28;20048;-76
2023/06/13 07:31:50;;;;;;;3.33;2.60;;;17.30;99.90;;;;;;5047434;28;20032;-75
2023/06/13 07:34:16;;;;;;;3.60;2.50;;;17.30;99.90;;;;;;5047152;28;20039;-75
2023/06/13 07:36:42;;;;;;;3.22;2.55;;;17.20;99.90;;;;;;5043431;28;20484;-76
2023/06/13 07:39:13;;;;;;;4.88;2.70;;;17.30;99.90;;;;;;5053751;28;20484;-75
2023/06/13 07:41:39;;;;;;;3.83;2.58;;;17.50;99.90;;;;;;5046813;28;20036;-77
2023/06/13 07:44:05;;;;;;;3.55;2.40;;;17.70;99.90;;;;;;5048371;28;20033;-76
2023/06/13 07:46:31;;;;;;;4.07;2.35;;;17.90;99.90;;;;;;5052534;28;20538;-76
2023/06/13 07:48:58;;;;;;;3.45;2.70;;;17.90;99.90;;;;;;5052753;28;20037;-76
2023/06/13 07:51:24;;;;;;;3.60;2.55;;;17.80;99.90;;;;;;5049046;28;20528;-76
2023/06/13 07:53:50;;;;;;;3.45;2.80;;;17.60;99.90;;;;;;5047035;28;20049;-77
2023/06/13 07:56:16;;;;;;;3.70;2.55;;;17.90;99.90;;;;;;5034086;28;20151;-75
2023/06/13 07:58:42;;;;;;;3.22;2.85;;;17.80;99.90;;;;;;5052376;28;20558;-76
2023/06/13 08:01:08;;;;;;;4.10;2.80;;;17.80;99.90;;;;;;5054980;28;20044;-78
2023/06/13 08:03:34;;;;;;;5.32;2.80;;;17.90;99.90;;;;;;5052785;28;20024;-77
2023/06/13 08:06:00;;;;;;;3.70;2.70;;;17.80;99.90;;;;;;5046413;28;20039;-76
2023/06/13 08:08:26;;;;;;;3.30;2.65;;;17.90;99.90;;;;;;5039636;28;20022;-76
2023/06/13 08:10:51;;;;;;;3.53;2.40;;;17.80;99.90;;;;;;5047088;28;20388;-76
2023/06/13 08:13:17;;;;;;;3.45;2.88;;;17.90;99.90;;;;;;5048352;28;20060;-76
2023/06/13 08:15:43;;;;;;;4.20;2.60;;;18.20;99.90;;;;;;5049019;28;20056;-75
2023/06/13 08:18:09;;;;;;;2.85;2.50;;;18.40;99.90;;;;;;5049952;28;20089;-77
2023/06/13 08:20:36;;;;;;;3.55;2.40;;;18.30;99.90;;;;;;5047663;28;20041;-76
2023/06/13 08:23:01;;;;;;;4.15;2.50;;;18.60;99.90;;;;;;5025075;28;20052;-76
2023/06/13 08:25:27;;;;;;;4.55;3.03;;;18.50;99.90;;;;;;5044617;28;20124;-76
2023/06/13 08:27:53;;;;;;;4.78;3.05;;;18.20;99.90;;;;;;5045499;28;20029;-76
2023/06/13 08:30:19;;;;;;;3.95;2.50;;;18.40;99.90;;;;;;5042000;28;20038;-76
2023/06/13 08:32:46;;;;;;;4.03;2.75;;;18.50;99.90;;;;;;5049547;28;20044;-76
2023/06/13 08:35:12;;;;;;;5.20;2.65;;;18.60;99.90;;;;;;5056147;28;20021;-76
2023/06/13 08:37:41;;;;;;;3.88;2.70;;;18.70;99.90;;;;;;5037103;28;20127;-76
2023/06/13 08:40:09;;;;;;;4.18;2.70;;;18.40;99.90;;;;;;5048716;28;20024;-76
2023/06/13 08:42:36;;;;;;;3.85;2.80;;;18.50;99.90;;;;;;5048880;28;20103;-77
2023/06/13 08:45:03;;;;;;;3.55;2.70;;;18.80;99.90;;;;;;5048528;28;20085;-76
2023/06/13 08:47:29;;;;;;;6.38;3.13;;;18.50;99.90;;;;;;5044923;28;20037;-76
2023/06/13 08:49:55;;;;;;;4.13;2.80;;;18.60;99.90;;;;;;5045031;28;20056;-76
2023/06/13 08:52:22;;;;;;;2.92;2.45;;;18.60;99.90;;;;;;5048841;28;20504;-76
2023/06/13 08:54:55;;;;;;;4.47;2.80;;;18.70;99.90;;;;;;5048266;28;20029;-76
2023/06/13 08:57:24;;;;;;;3.92;2.50;;;18.80;99.90;;;;;;5054222;28;20037;-76
2023/06/13 08:59:52;;;;;;;4.50;2.53;;;19.10;99.90;;;;;;5033829;28;20029;-76
2023/06/13 09:02:20;;;;;;;4.82;2.45;;;19.10;99.90;;;;;;5046181;28;20041;-76
2023/06/13 09:04:47;;;;;;;5.93;2.55;;;19.20;99.90;;;;;;5053604;28;20572;-78
2023/06/13 09:07:16;;;;;;;3.95;2.58;;;19.30;99.90;;;;;;5055320;28;20041;-76
2023/06/13 09:09:42;;;;;;;2.40;2.20;;;19.10;99.90;;;;;;5045364;28;20033;-76
2023/06/13 09:12:12;;;;;;;4.45;2.65;;;19.10;99.90;;;;;;5049127;28;20116;-76
2023/06/13 09:14:38;;;;;;;3.88;2.17;;;19.30;99.90;;;;;;5049107;28;20473;-76
2023/06/13 09:17:05;;;;;;;4.40;2.50;;;19.30;99.90;;;;;;5028590;28;20037;-75
2023/06/13 09:19:31;;;;;;;4.90;2.80;;;19.40;99.90;;;;;;5050855;28;20045;-77
2023/06/13 09:21:59;;;;;;;4.88;2.33;;;19.40;99.90;;;;;;5048986;28;20035;-77
2023/06/13 09:24:25;;;;;;;4.40;2.70;;;19.30;99.90;;;;;;5027664;28;20033;-76
2023/06/13 09:26:51;;;;;;;4.20;2.13;;;19.60;99.90;;;;;;5053768;28;20063;-76
2023/06/13 09:29:17;;;;;;;3.90;2.60;;;19.70;99.90;;;;;;5051110;28;20053;-76
2023/06/13 09:31:42;;;;;;;7.00;2.53;;;19.60;99.90;;;;;;5051295;28;20041;-76
2023/06/13 09:34:13;;;;;;;4.20;2.58;;;19.70;99.90;;;;;;5052684;28;20045;-77
2023/06/13 09:36:40;;;;;;;5.00;2.45;;;19.90;99.90;;;;;;5053179;28;20033;-76
2023/06/13 09:39:06;;;;;;;4.40;2.30;;;19.90;99.90;;;;;;5056839;28;20047;-77
2023/06/13 09:41:33;;;;;;;4.28;2.55;;;19.90;99.90;;;;;;5052432;28;20094;-79
2023/06/13 09:44:05;;;;;;;2.88;2.30;;;20.00;99.90;;;;;;5050908;28;20051;-81
2023/06/13 09:46:36;;;;;;;3.60;2.40;;;19.90;99.90;;;;;;5049403;28;20095;-77
2023/06/13 09:49:03;;;;;;;3.25;2.45;;;19.90;99.90;;;;;;5051572;28;20033;-84
2023/06/13 09:51:32;;;;;;;4.60;2.67;;;20.10;99.90;;;;;;5051493;28;20083;-77
2023/06/13 09:54:00;;;;;;;3.30;2.40;;;20.10;99.90;;;;;;5051064;28;20053;-76
2023/06/13 09:56:26;;;;;;;2.55;2.17;;;20.30;99.90;;;;;;5054731;28;20067;-77
2023/06/13 09:58:52;;;;;;;2.83;2.38;;;20.20;99.90;;;;;;5052217;28;20711;-77
2023/06/13 10:01:18;;;;;;;3.63;2.80;;;20.30;99.90;;;;;;5053278;28;20042;-76
2023/06/13 10:03:45;;;;;;;2.28;2.03;;;20.50;99.90;;;;;;5032129;28;20032;-76
2023/06/13 10:06:12;;;;;;;3.40;2.50;;;20.40;99.90;;;;;;5049818;28;20040;-76
2023/06/13 10:08:38;;;;;;;3.42;2.30;;;20.30;99.90;;;;;;5047623;28;20029;-76
2023/06/13 10:11:15;;;;;;;3.67;2.20;;;20.40;99.90;;;;;;5047320;28;20041;-76
2023/06/13 10:13:54;;;;;;;3.67;2.30;;;20.50;99.90;;;;;;5045038;28;20031;-77
2023/06/13 10:16:21;;;;;;;3.40;2.35;;;20.60;99.90;;;;;;5048283;28;20043;-75
2023/06/13 10:18:53;;;;;;;4.63;2.33;;;20.70;99.90;;;;;;5035169;28;20782;-76
2023/06/13 10:21:21;;;;;;;3.70;2.80;;;20.70;99.90;;;;;;5057044;28;20288;-77
2023/06/13 10:23:49;;;;;;;3.17;2.45;;;20.80;99.90;;;;;;5052023;28;20056;-75
2023/06/13 10:26:38;;;;;;;3.25;2.50;;;20.70;99.90;;;;;;5032319;28;20032;-75
2023/06/13 10:29:31;;;;;;;4.45;2.22;;;20.80;99.90;;;;;;5036133;28;20402;-76
2023/06/13 10:32:15;;;;;;;3.50;2.45;;;20.80;99.90;;;;;;5048880;28;20075;-75
2023/06/13 10:34:55;;;;;;;3.13;2.17;;;20.80;99.90;;;;;;5050164;28;20029;-77
2023/06/13 10:38:03;;;;;;;5.72;2.33;;;20.90;99.90;;;;;;5028515;28;20116;-77
2023/06/13 10:40:34;;;;;;;;;;;21.30;99.90;;;;;;5050451;28;20033;-77
2023/06/13 10:43:11;;;;;;;3.72;2.45;;;21.50;99.90;;;;;;5048686;28;19916;-77
2023/06/13 10:45:39;;;;;;;4.57;2.55;;;21.40;99.90;;;;;;5056046;28;20068;-76
2023/06/13 10:48:07;;;;;;;2.65;2.20;;;21.20;99.90;;;;;;5052586;28;20033;-77
2023/06/13 10:50:40;;;;;;;4.68;2.47;;;21.20;99.90;;;;;;5052683;28;20037;-79
2023/06/13 10:53:09;;;;;;;3.75;2.22;;;21.20;99.90;;;;;;5050728;28;20073;-78
2023/06/13 10:55:40;;;;;;;2.92;2.22;;;21.00;99.90;;;;;;5057158;28;20039;-77
2023/06/13 10:58:12;;;;;;;63.65;6.68;;;21.10;99.90;;;;;;5048529;28;20137;-77
2023/06/13 11:00:39;;;;;;;4.75;2.45;;;21.30;99.90;;;;;;5035108;28;20152;-76
2023/06/13 11:03:29;;;;;;;3.90;2.30;;;21.50;99.90;;;;;;5050987;28;20064;-76
2023/06/13 11:05:55;;;;;;;5.57;2.35;;;21.60;99.90;;;;;;5033829;28;20300;-77
2023/06/13 11:08:22;;;;;;;6.18;2.42;;;21.70;99.90;;;;;;5049242;28;20129;-77
2023/06/13 11:10:50;;;;;;;2.55;2.35;;;21.60;99.90;;;;;;5058834;28;20102;-77
2023/06/13 11:13:21;;;;;;;4.18;2.40;;;21.50;99.90;;;;;;5039160;28;20029;-77
2023/06/13 11:15:50;;;;;;;3.05;2.35;;;21.40;99.90;;;;;;5013747;28;20033;-77
2023/06/13 11:18:19;;;;;;;2.95;2.38;;;21.40;99.90;;;;;;5054593;28;20071;-76
2023/06/13 11:20:56;;;;;;;5.25;2.50;;;21.40;99.90;;;;;;5035714;28;20063;-77
2023/06/13 11:23:23;;;;;;;2.13;2.00;;;21.50;99.90;;;;;;5050188;28;20484;-77
2023/06/13 11:25:50;;;;;;;3.22;2.58;;;21.60;99.90;;;;;;5055433;28;20033;-77
2023/06/13 11:28:18;;;;;;;5.45;2.25;;;21.70;99.90;;;;;;5050353;28;20069;-77
2023/06/13 11:30:47;;;;;;;2.72;2.35;;;21.80;99.90;;;;;;5031659;28;20044;-77
2023/06/13 11:33:13;;;;;;;3.55;2.50;;;21.80;99.90;;;;;;5051101;28;20041;-77
2023/06/13 11:35:47;;;;;;;5.15;2.65;;;21.70;99.90;;;;;;5050032;28;20028;-78
2023/06/13 11:38:19;;;;;;;4.30;2.33;;;21.70;99.90;;;;;;5032579;28;20055;-77
2023/06/13 11:40:49;;;;;;;4.85;2.60;;;21.40;99.90;;;;;;5045450;28;20033;-77
2023/06/13 11:43:15;;;;;;;4.72;2.60;;;21.40;99.90;;;;;;5049984;28;20051;-78
2023/06/13 11:45:41;;;;;;;3.10;2.28;;;21.50;99.90;;;;;;5051392;28;20099;-78
2023/06/13 11:48:11;;;;;;;10.13;3.05;;;21.70;99.90;;;;;;5052236;28;20029;-77
2023/06/13 11:50:37;;;;;;;4.40;2.45;;;21.60;99.90;;;;;;5049907;28;20036;-76
2023/06/13 11:53:07;;;;;;;3.25;2.92;;;21.70;99.90;;;;;;5033627;28;20053;-77
2023/06/13 11:55:34;;;;;;;2.67;2.33;;;21.80;99.90;;;;;;5026320;28;20052;-77
2023/06/13 11:58:00;;;;;;;3.20;2.67;;;21.70;99.90;;;;;;5028169;28;20025;-78
2023/06/13 12:00:27;;;;;;;3.75;2.40;;;21.70;99.90;;;;;;5030051;28;20024;-78
2023/06/13 12:02:57;;;;;;;8.18;2.50;;;21.70;99.90;;;;;;5027513;28;20058;-77
2023/06/13 12:05:23;;;;;;;3.97;2.60;;;21.90;99.90;;;;;;5027903;28;20085;-79
2023/06/13 12:07:50;;;;;;;3.30;2.75;;;22.00;99.90;;;;;;5027888;28;20045;-80
2023/06/13 12:10:17;;;;;;;3.90;2.58;;;21.90;99.90;;;;;;5026944;28;20042;-79
2023/06/13 12:12:58;;;;;;;4.28;3.15;;;21.80;99.90;;;;;;5026496;28;20033;-77
2023/06/13 12:15:27;;;;;;;2.75;2.47;;;21.80;99.90;;;;;;5026908;28;20041;-79
2023/06/13 12:18:01;;;;;;;3.40;2.47;;;21.80;99.90;;;;;;5028151;28;20093;-77
2023/06/13 12:20:27;;;;;;;3.33;2.33;;;22.00;99.90;;;;;;5027482;28;20026;-78
2023/06/13 12:23:00;;;;;;;5.25;2.80;;;21.90;99.90;;;;;;5028413;28;20045;-76
2023/06/13 12:25:28;;;;;;;3.17;2.42;;;22.00;99.90;;;;;;5028368;28;20037;-76
2023/06/13 12:27:58;;;;;;;8.60;3.40;;;21.80;99.90;;;;;;5033078;28;20167;-76
2023/06/13 12:30:24;;;;;;;4.13;2.78;;;21.70;99.90;;;;;;5028391;28;20048;-77
2023/06/13 12:32:56;;;;;;;3.15;2.78;;;21.70;99.90;;;;;;5029559;28;20033;-76
2023/06/13 12:35:23;;;;;;;4.68;2.55;;;21.70;99.90;;;;;;5031000;28;20038;-77
2023/06/13 12:38:16;;;;;;;6.68;3.25;;;21.90;99.90;;;;;;5032760;28;20104;-77
2023/06/13 12:40:41;;;;;;;5.63;3.00;;;22.10;99.90;;;;;;5014004;28;20030;-77
2023/06/13 12:43:07;;;;;;;4.05;2.60;;;22.70;99.90;;;;;;5021576;28;20098;-79
2023/06/13 12:45:33;;;;;;;4.78;2.53;;;22.60;99.90;;;;;;5031908;28;20041;-77
2023/06/13 12:47:58;;;;;;;4.18;2.50;;;22.50;99.90;;;;;;5030869;28;20037;-76
2023/06/13 12:50:26;;;;;;;4.60;2.67;;;22.40;99.90;;;;;;5031220;28;20481;-79
2023/06/13 12:53:08;;;;;;;;;;;22.40;99.90;;;;;;5038239;28;20045;-79
2023/06/13 12:55:38;;;;;;;3.42;2.35;;;22.60;99.90;;;;;;5050786;28;19913;-79
2023/06/13 12:58:32;;;;;;;3.95;3.00;;;22.60;99.90;;;;;;5054710;28;20040;-78